createdAt,value
2023-04-30T00:00:02.776Z,11.67
2023-04-30T00:02:32.855Z,11.65
2023-04-30T00:05:03.284Z,11.64
2023-04-30T00:07:33.145Z,11.58
2023-04-30T00:10:05.879Z,11.57
2023-04-30T00:12:35.899Z,11.58
2023-04-30T00:15:05.826Z,11.56
2023-04-30T00:17:35.743Z,11.54
2023-04-30T00:20:05.687Z,11.53
2023-04-30T00:22:36.692Z,11.50
2023-04-30T00:25:09.681Z,11.44
2023-04-30T00:27:40.874Z,11.37
2023-04-30T00:30:11.848Z,11.32
2023-04-30T00:32:41.819Z,11.27
2023-04-30T00:35:12.782Z,11.21
2023-04-30T00:37:45.308Z,11.16
2023-04-30T00:40:18.603Z,11.12
2023-04-30T00:42:48.895Z,11.10
2023-04-30T00:45:22.320Z,11.10
2023-04-30T00:47:52.884Z,11.07
2023-04-30T00:50:23.384Z,11.03
2023-04-30T00:52:53.681Z,11.00
2023-04-30T00:55:26.488Z,10.96
2023-04-30T00:57:56.795Z,10.91
2023-04-30T01:00:28.071Z,10.88
2023-04-30T01:02:59.464Z,10.85
2023-04-30T01:05:29.545Z,10.83
2023-04-30T01:08:00.224Z,10.80
2023-04-30T01:10:39.281Z,10.79
2023-04-30T01:13:13.602Z,10.77
2023-04-30T01:15:57.898Z,10.73
2023-04-30T01:18:32.742Z,10.70
2023-04-30T01:21:06.048Z,10.67
2023-04-30T01:23:58.018Z,10.62
2023-04-30T01:26:51.596Z,10.57
2023-04-30T01:29:25.677Z,10.58
2023-04-30T01:31:55.770Z,10.55
2023-04-30T01:34:25.664Z,10.51
2023-04-30T01:37:07.315Z,10.48
2023-04-30T01:39:56.846Z,10.41
2023-04-30T01:42:33.954Z,10.40
2023-04-30T01:45:23.393Z,10.36
2023-04-30T01:48:00.554Z,10.36
2023-04-30T01:50:40.641Z,10.34
2023-04-30T01:53:16.947Z,10.33
2023-04-30T01:55:51.362Z,10.29
2023-04-30T01:58:22.133Z,10.26
2023-04-30T02:00:55.121Z,10.19
2023-04-30T02:03:25.272Z,10.14
2023-04-30T02:05:56.368Z,10.13
2023-04-30T02:08:27.375Z,10.11
2023-04-30T02:10:57.436Z,10.09
2023-04-30T02:13:27.290Z,10.06
2023-04-30T02:15:59.878Z,10.04
2023-04-30T02:18:30.015Z,10.02
2023-04-30T02:21:00.609Z,9.99
2023-04-30T02:23:30.515Z,9.97
2023-04-30T02:26:00.537Z,9.96
2023-04-30T02:28:30.478Z,9.92
2023-04-30T02:31:03.340Z,9.85
2023-04-30T02:33:33.269Z,9.81
2023-04-30T02:36:04.183Z,9.78
2023-04-30T02:38:34.308Z,9.75
2023-04-30T02:41:04.268Z,9.72
2023-04-30T02:43:34.082Z,9.69
2023-04-30T02:46:07.031Z,9.60
2023-04-30T02:48:38.022Z,9.55
2023-04-30T02:51:08.602Z,9.48
2023-04-30T02:53:38.577Z,9.42
2023-04-30T02:56:09.967Z,9.39
2023-04-30T02:58:40.165Z,9.37
2023-04-30T03:01:12.835Z,9.35
2023-04-30T03:03:42.888Z,9.37
2023-04-30T03:06:12.933Z,9.33
2023-04-30T03:08:42.830Z,9.29
2023-04-30T03:11:12.750Z,9.29
2023-04-30T03:13:42.810Z,9.29
2023-04-30T03:16:15.367Z,9.29
2023-04-30T03:18:45.233Z,9.30
2023-04-30T03:21:15.064Z,9.30
2023-04-30T03:23:45.101Z,9.30
2023-04-30T03:26:15.315Z,9.28
2023-04-30T03:28:45.132Z,9.24
2023-04-30T03:31:17.618Z,9.24
2023-04-30T03:33:47.572Z,9.21
2023-04-30T03:36:17.397Z,9.20
2023-04-30T03:38:47.269Z,9.20
2023-04-30T03:41:17.080Z,9.20
2023-04-30T03:43:46.921Z,9.19
2023-04-30T03:46:19.716Z,9.16
2023-04-30T03:48:49.757Z,9.12
2023-04-30T03:51:20.041Z,9.08
2023-04-30T03:53:49.828Z,9.00
2023-04-30T03:56:19.706Z,8.98
2023-04-30T03:58:49.591Z,8.99
2023-04-30T04:01:22.287Z,8.97
2023-04-30T04:03:52.607Z,8.96
2023-04-30T04:06:22.878Z,8.95
2023-04-30T04:08:53.323Z,8.91
2023-04-30T04:11:23.837Z,8.88
2023-04-30T04:13:53.814Z,8.82
2023-04-30T04:16:27.082Z,8.78
2023-04-30T04:18:56.969Z,8.79
2023-04-30T04:21:27.254Z,8.79
2023-04-30T04:23:57.390Z,8.80
2023-04-30T04:26:29.156Z,8.79
2023-04-30T04:28:59.018Z,8.79
2023-04-30T04:31:31.788Z,8.79
2023-04-30T04:34:02.961Z,8.78
2023-04-30T04:36:34.360Z,8.74
2023-04-30T04:39:04.849Z,8.74
2023-04-30T04:41:36.554Z,8.75
2023-04-30T04:44:06.714Z,8.73
2023-04-30T04:46:42.542Z,8.73
2023-04-30T04:49:12.852Z,8.72
2023-04-30T04:51:42.715Z,8.70
2023-04-30T04:54:12.692Z,8.67
2023-04-30T04:56:42.712Z,8.66
2023-04-30T04:59:12.722Z,8.68
2023-04-30T05:01:48.404Z,8.68
2023-04-30T05:04:18.306Z,8.68
2023-04-30T05:06:48.591Z,8.69
2023-04-30T05:09:18.583Z,8.68
2023-04-30T05:11:49.364Z,8.67
2023-04-30T05:14:21.082Z,8.65
2023-04-30T05:16:53.678Z,8.64
2023-04-30T05:19:23.538Z,8.64
2023-04-30T05:21:53.427Z,8.65
2023-04-30T05:24:23.570Z,8.66
2023-04-30T05:26:53.588Z,8.65
2023-04-30T05:29:23.414Z,8.68
2023-04-30T05:31:56.292Z,8.70
2023-04-30T05:34:26.291Z,8.68
2023-04-30T05:36:56.631Z,8.68
2023-04-30T05:39:26.734Z,8.71
2023-04-30T05:41:58.961Z,8.74
2023-04-30T05:44:30.604Z,8.74
2023-04-30T05:47:03.072Z,8.75
2023-04-30T05:49:34.418Z,8.75
2023-04-30T05:52:06.005Z,8.75
2023-04-30T05:54:37.108Z,8.79
2023-04-30T05:57:07.133Z,8.81
2023-04-30T05:59:37.081Z,8.84
2023-04-30T06:02:09.903Z,8.88
2023-04-30T06:04:39.865Z,8.92
2023-04-30T06:07:09.755Z,8.97
2023-04-30T06:09:39.594Z,9.03
2023-04-30T06:12:09.551Z,9.10
2023-04-30T06:14:40.099Z,9.16
2023-04-30T06:17:12.917Z,9.24
2023-04-30T06:19:42.813Z,9.34
2023-04-30T06:22:12.703Z,9.40
2023-04-30T06:24:42.609Z,9.55
2023-04-30T06:27:12.585Z,9.75
2023-04-30T06:29:42.481Z,9.98
2023-04-30T06:32:15.115Z,10.29
2023-04-30T06:34:45.280Z,10.63
2023-04-30T06:37:15.245Z,10.97
2023-04-30T06:39:45.079Z,11.27
2023-04-30T06:42:14.935Z,11.48
2023-04-30T06:44:45.865Z,11.69
2023-04-30T06:47:18.669Z,11.96
2023-04-30T06:49:49.668Z,12.20
2023-04-30T06:52:19.572Z,12.53
2023-04-30T06:54:49.488Z,12.73
2023-04-30T06:57:19.440Z,12.80
2023-04-30T06:59:50.350Z,12.97
2023-04-30T07:02:22.922Z,13.19
2023-04-30T07:04:52.842Z,13.42
2023-04-30T07:07:23.419Z,13.72
2023-04-30T07:09:53.944Z,14.06
2023-04-30T07:12:24.549Z,14.15
2023-04-30T07:14:54.562Z,14.31
2023-04-30T07:17:27.898Z,14.54
2023-04-30T07:19:57.918Z,14.81
2023-04-30T07:22:28.170Z,15.03
2023-04-30T07:24:58.448Z,15.28
2023-04-30T07:27:28.643Z,15.43
2023-04-30T07:29:58.563Z,15.51
2023-04-30T07:32:31.149Z,15.72
2023-04-30T07:35:01.354Z,15.85
2023-04-30T07:37:32.564Z,15.95
2023-04-30T07:40:10.402Z,16.05
2023-04-30T07:42:42.976Z,16.24
2023-04-30T07:45:14.165Z,16.34
2023-04-30T07:47:47.878Z,16.51
2023-04-30T07:50:18.627Z,16.69
2023-04-30T07:52:48.596Z,16.95
2023-04-30T07:55:18.823Z,17.13
2023-04-30T07:57:50.644Z,17.38
2023-04-30T08:00:20.777Z,17.56
2023-04-30T08:02:53.616Z,17.84
2023-04-30T08:05:23.842Z,17.93
2023-04-30T08:07:53.819Z,18.04
2023-04-30T08:10:23.790Z,18.06
2023-04-30T08:12:53.806Z,17.98
2023-04-30T08:15:27.328Z,18.14
2023-04-30T08:18:01.272Z,18.36
2023-04-30T08:20:32.254Z,18.38
2023-04-30T08:23:02.512Z,18.37
2023-04-30T08:25:32.923Z,18.51
2023-04-30T08:28:02.917Z,18.64
2023-04-30T08:30:32.823Z,18.82
2023-04-30T08:33:05.756Z,19.06
2023-04-30T08:35:35.766Z,19.20
2023-04-30T08:38:05.804Z,19.23
2023-04-30T08:40:51.166Z,19.36
2023-04-30T08:43:22.935Z,19.55
2023-04-30T08:45:55.022Z,19.59
2023-04-30T08:48:29.097Z,19.58
2023-04-30T08:50:59.120Z,19.72
2023-04-30T08:53:29.024Z,19.82
2023-04-30T08:55:58.953Z,20.02
2023-04-30T08:58:28.955Z,20.06
2023-04-30T09:01:01.415Z,19.94
2023-04-30T09:03:34.187Z,20.11
2023-04-30T09:06:04.535Z,20.28
2023-04-30T09:08:47.857Z,20.32
2023-04-30T09:11:25.658Z,20.35
2023-04-30T09:13:59.178Z,20.50
2023-04-30T09:16:31.429Z,20.57
2023-04-30T09:19:04.318Z,20.59
2023-04-30T09:21:37.722Z,20.59
2023-04-30T09:24:08.965Z,20.59
2023-04-30T09:26:40.692Z,20.67
2023-04-30T09:29:11.005Z,20.81
2023-04-30T09:31:42.011Z,21.12
2023-04-30T09:34:14.761Z,21.41
2023-04-30T09:36:56.771Z,21.46
2023-04-30T09:39:26.931Z,21.71
2023-04-30T09:42:10.628Z,21.58
2023-04-30T09:44:41.775Z,21.80
2023-04-30T09:47:16.028Z,21.83
2023-04-30T09:49:54.055Z,21.73
2023-04-30T09:52:24.884Z,21.83
2023-04-30T09:54:55.012Z,21.81
2023-04-30T09:57:27.373Z,21.92
2023-04-30T09:59:58.582Z,21.94
2023-04-30T10:02:29.526Z,22.09
2023-04-30T10:05:03.623Z,22.30
2023-04-30T10:07:39.278Z,22.20
2023-04-30T10:10:12.155Z,22.38
2023-04-30T10:12:46.450Z,22.52
2023-04-30T10:15:20.685Z,22.61
2023-04-30T10:17:53.703Z,22.65
2023-04-30T10:20:29.768Z,22.65
2023-04-30T10:23:00.368Z,22.77
2023-04-30T10:25:31.962Z,22.94
2023-04-30T10:28:03.957Z,23.08
2023-04-30T10:30:35.934Z,23.20
2023-04-30T10:33:16.274Z,23.10
2023-04-30T10:35:52.971Z,23.08
2023-04-30T10:38:26.936Z,23.11
2023-04-30T10:41:02.053Z,23.06
2023-04-30T10:43:35.630Z,23.18
2023-04-30T10:46:06.143Z,23.17
2023-04-30T10:48:38.170Z,23.20
2023-04-30T10:51:12.196Z,22.99
2023-04-30T10:53:45.860Z,23.11
2023-04-30T10:56:16.376Z,23.33
2023-04-30T10:58:46.671Z,23.34
2023-04-30T11:01:18.534Z,23.32
2023-04-30T11:04:08.434Z,23.24
2023-04-30T11:07:05.219Z,23.37
2023-04-30T11:09:40.598Z,23.39
2023-04-30T11:12:15.937Z,23.32
2023-04-30T11:14:47.546Z,23.53
2023-04-30T11:17:26.483Z,23.66
2023-04-30T11:19:57.970Z,23.65
2023-04-30T11:22:36.433Z,23.63
2023-04-30T11:25:09.747Z,23.53
2023-04-30T11:27:42.366Z,23.61
2023-04-30T11:30:16.985Z,23.87
2023-04-30T11:32:48.993Z,24.18
2023-04-30T11:35:21.987Z,24.08
2023-04-30T11:37:58.612Z,24.17
2023-04-30T11:40:29.728Z,24.41
2023-04-30T11:42:59.792Z,24.28
2023-04-30T11:45:30.630Z,24.33
2023-04-30T11:48:01.151Z,24.41
2023-04-30T11:50:36.741Z,24.24
2023-04-30T11:53:09.710Z,24.29
2023-04-30T11:55:40.573Z,24.18
2023-04-30T11:58:13.665Z,24.09
2023-04-30T12:00:44.148Z,23.85
2023-04-30T12:03:18.379Z,23.80
2023-04-30T12:05:50.280Z,24.07
2023-04-30T12:08:23.361Z,24.12
2023-04-30T12:10:53.237Z,24.16
2023-04-30T12:13:23.327Z,24.20
2023-04-30T12:16:03.635Z,24.06
2023-04-30T12:18:36.588Z,24.01
2023-04-30T12:21:07.330Z,24.22
2023-04-30T12:23:40.289Z,24.52
2023-04-30T12:26:10.558Z,24.71
2023-04-30T12:28:42.313Z,24.76
2023-04-30T12:31:12.877Z,24.71
2023-04-30T12:33:43.144Z,24.85
2023-04-30T12:36:14.271Z,24.96
2023-04-30T12:38:50.288Z,25.02
2023-04-30T12:41:21.447Z,25.01
2023-04-30T12:43:52.189Z,25.10
2023-04-30T12:46:29.895Z,24.98
2023-04-30T12:49:01.193Z,25.08
2023-04-30T12:51:33.318Z,25.25
2023-04-30T12:54:06.618Z,25.30
2023-04-30T12:56:36.544Z,24.89
2023-04-30T12:59:06.457Z,24.76
2023-04-30T13:01:36.534Z,24.83
2023-04-30T13:04:06.588Z,24.94
2023-04-30T13:06:36.839Z,24.90
2023-04-30T13:09:12.660Z,24.89
2023-04-30T13:11:42.508Z,25.12
2023-04-30T13:14:13.282Z,25.20
2023-04-30T13:16:43.311Z,25.31
2023-04-30T13:19:13.251Z,25.18
2023-04-30T13:21:43.699Z,25.09
2023-04-30T13:24:16.317Z,25.25
2023-04-30T13:26:46.413Z,25.37
2023-04-30T13:29:16.274Z,25.43
2023-04-30T13:31:46.215Z,25.48
2023-04-30T13:34:16.402Z,25.28
2023-04-30T13:36:47.197Z,25.26
2023-04-30T13:39:20.120Z,25.27
2023-04-30T13:41:49.961Z,25.35
2023-04-30T13:44:20.129Z,25.49
2023-04-30T13:46:50.692Z,25.55
2023-04-30T13:49:21.107Z,25.48
2023-04-30T13:51:51.206Z,25.47
2023-04-30T13:54:23.860Z,25.21
2023-04-30T13:56:56.222Z,25.03
2023-04-30T13:59:26.417Z,25.29
2023-04-30T14:01:56.288Z,25.27
2023-04-30T14:04:26.219Z,25.28
2023-04-30T14:06:56.870Z,25.06
2023-04-30T14:09:29.673Z,24.81
2023-04-30T14:12:00.426Z,24.70
2023-04-30T14:14:31.254Z,24.70
2023-04-30T14:17:01.497Z,24.93
2023-04-30T14:19:31.224Z,24.91
2023-04-30T14:22:01.206Z,24.90
2023-04-30T14:24:34.665Z,24.81
2023-04-30T14:27:04.661Z,24.82
2023-04-30T14:29:34.679Z,24.73
2023-04-30T14:32:05.018Z,24.84
2023-04-30T14:34:35.010Z,24.94
2023-04-30T14:37:06.005Z,24.87
2023-04-30T14:39:38.582Z,24.73
2023-04-30T14:42:09.070Z,24.52
2023-04-30T14:44:40.228Z,24.30
2023-04-30T14:47:10.166Z,24.32
2023-04-30T14:49:52.586Z,24.42
2023-04-30T14:52:22.979Z,24.58
2023-04-30T14:54:56.266Z,24.71
2023-04-30T14:57:27.608Z,24.88
2023-04-30T15:00:00.622Z,24.89
2023-04-30T15:02:30.998Z,24.91
2023-04-30T15:05:01.092Z,24.82
2023-04-30T15:07:30.912Z,24.85
2023-04-30T15:10:03.856Z,24.55
2023-04-30T15:12:34.721Z,24.35
2023-04-30T15:15:04.902Z,24.45
2023-04-30T15:17:37.160Z,24.54
2023-04-30T15:20:08.333Z,24.49
2023-04-30T15:22:38.465Z,24.34
2023-04-30T15:25:11.994Z,24.30
2023-04-30T15:27:42.022Z,24.31
2023-04-30T15:30:13.583Z,24.34
2023-04-30T15:32:43.706Z,24.19
2023-04-30T15:35:13.576Z,24.19
2023-04-30T15:37:43.514Z,24.06
2023-04-30T15:40:16.498Z,23.95
2023-04-30T15:42:46.977Z,23.96
2023-04-30T15:45:16.983Z,23.77
2023-04-30T15:47:47.180Z,23.78
2023-04-30T15:50:17.027Z,23.81
2023-04-30T15:52:46.960Z,23.88
2023-04-30T15:55:19.622Z,23.97
2023-04-30T15:57:49.540Z,23.93
2023-04-30T16:00:19.886Z,23.78
2023-04-30T16:02:50.253Z,23.65
2023-04-30T16:05:20.260Z,23.41
2023-04-30T16:07:50.325Z,23.16
2023-04-30T16:10:23.246Z,23.06
2023-04-30T16:12:53.267Z,23.11
2023-04-30T16:15:24.459Z,23.25
2023-04-30T16:17:55.905Z,23.28
2023-04-30T16:20:27.518Z,23.22
2023-04-30T16:22:57.899Z,23.23
2023-04-30T16:25:30.652Z,23.28
2023-04-30T16:28:00.663Z,23.33
2023-04-30T16:30:30.729Z,23.33
2023-04-30T16:33:00.611Z,23.23
2023-04-30T16:35:30.629Z,23.22
2023-04-30T16:38:01.460Z,23.12
2023-04-30T16:40:33.985Z,23.07
2023-04-30T16:43:06.322Z,23.03
2023-04-30T16:45:36.372Z,23.05
2023-04-30T16:48:06.579Z,23.08
2023-04-30T16:50:36.586Z,22.99
2023-04-30T16:53:07.087Z,22.92
2023-04-30T16:55:40.733Z,22.87
2023-04-30T16:58:10.584Z,22.72
2023-04-30T17:00:40.485Z,22.65
2023-04-30T17:03:10.522Z,22.56
2023-04-30T17:05:40.826Z,22.43
2023-04-30T17:08:10.682Z,22.42
2023-04-30T17:10:45.056Z,22.31
2023-04-30T17:13:15.546Z,22.18
2023-04-30T17:15:46.617Z,22.16
2023-04-30T17:18:16.605Z,22.10
2023-04-30T17:20:47.016Z,22.08
2023-04-30T17:23:17.154Z,21.99
2023-04-30T17:25:50.815Z,21.93
2023-04-30T17:28:20.868Z,21.77
2023-04-30T17:30:51.007Z,21.62
2023-04-30T17:33:21.083Z,21.61
2023-04-30T17:35:51.131Z,21.53
2023-04-30T17:38:22.312Z,21.38
2023-04-30T17:40:56.835Z,21.35
2023-04-30T17:43:27.033Z,21.32
2023-04-30T17:45:57.508Z,21.21
2023-04-30T17:48:27.604Z,21.16
2023-04-30T17:50:57.821Z,21.15
2023-04-30T17:53:27.813Z,21.15
2023-04-30T17:56:00.324Z,21.06
2023-04-30T17:58:30.635Z,20.93
2023-04-30T18:01:01.858Z,20.80
2023-04-30T18:03:32.768Z,20.72
2023-04-30T18:06:02.977Z,20.73
2023-04-30T18:08:32.910Z,20.74
2023-04-30T18:11:05.726Z,20.74
2023-04-30T18:13:37.209Z,20.74
2023-04-30T18:16:08.328Z,20.72
2023-04-30T18:18:38.297Z,20.64
2023-04-30T18:21:08.838Z,20.59
2023-04-30T18:23:38.661Z,20.38
2023-04-30T18:26:11.591Z,20.26
2023-04-30T18:28:42.096Z,20.21
2023-04-30T18:31:12.185Z,20.15
2023-04-30T18:33:42.118Z,20.14
2023-04-30T18:36:12.141Z,20.10
2023-04-30T18:38:42.180Z,20.07
2023-04-30T18:41:14.838Z,19.98
2023-04-30T18:43:45.994Z,19.86
2023-04-30T18:46:22.706Z,19.72
2023-04-30T18:48:52.746Z,19.60
2023-04-30T18:51:22.776Z,19.46
2023-04-30T18:53:53.165Z,19.34
2023-04-30T18:56:25.815Z,19.19
2023-04-30T18:58:55.699Z,19.15
2023-04-30T19:01:27.579Z,19.04
2023-04-30T19:03:57.549Z,18.96
2023-04-30T19:06:27.639Z,18.92
2023-04-30T19:08:59.984Z,18.76
2023-04-30T19:11:35.836Z,18.61
2023-04-30T19:14:08.032Z,18.53
2023-04-30T19:16:37.969Z,18.40
2023-04-30T19:19:07.823Z,18.35
2023-04-30T19:21:37.729Z,18.21
2023-04-30T19:24:07.894Z,18.14
2023-04-30T19:26:42.653Z,18.07
2023-04-30T19:29:12.649Z,17.97
2023-04-30T19:31:42.677Z,17.91
2023-04-30T19:34:13.998Z,17.86
2023-04-30T19:36:44.365Z,17.82
2023-04-30T19:39:15.767Z,17.74
2023-04-30T19:41:48.423Z,17.71
2023-04-30T19:44:20.388Z,17.68
2023-04-30T19:46:50.382Z,17.66
2023-04-30T19:49:20.362Z,17.67
2023-04-30T19:51:50.229Z,17.64
2023-04-30T19:54:20.228Z,17.58
2023-04-30T19:56:53.675Z,17.56
2023-04-30T19:59:23.930Z,17.43
2023-04-30T20:01:54.401Z,17.37
2023-04-30T20:04:26.655Z,17.27
2023-04-30T20:06:57.650Z,17.24
2023-04-30T20:09:28.100Z,17.21
2023-04-30T20:12:01.759Z,17.15
2023-04-30T20:14:31.582Z,17.08
2023-04-30T20:17:02.717Z,16.99
2023-04-30T20:19:32.896Z,17.00
2023-04-30T20:22:04.920Z,17.01
2023-04-30T20:24:34.890Z,17.01
2023-04-30T20:27:07.699Z,16.95
2023-04-30T20:29:40.211Z,16.89
2023-04-30T20:32:10.505Z,16.86
2023-04-30T20:34:40.507Z,16.84
2023-04-30T20:37:10.384Z,16.82
2023-04-30T20:39:41.705Z,16.82
2023-04-30T20:42:14.225Z,16.83
2023-04-30T20:44:44.070Z,16.83
2023-04-30T20:47:14.585Z,16.77
2023-04-30T20:49:45.162Z,16.70
2023-04-30T20:52:15.476Z,16.64
2023-04-30T20:54:45.936Z,16.61
2023-04-30T20:57:20.816Z,16.59
2023-04-30T20:59:50.681Z,16.56
2023-04-30T21:02:20.728Z,16.55
2023-04-30T21:04:50.702Z,16.46
2023-04-30T21:07:20.710Z,16.42
2023-04-30T21:09:51.006Z,16.40
2023-04-30T21:12:23.809Z,16.36
2023-04-30T21:14:54.542Z,16.28
2023-04-30T21:17:24.583Z,16.18
2023-04-30T21:19:55.282Z,16.11
2023-04-30T21:22:25.551Z,16.04
2023-04-30T21:24:57.182Z,16.00
2023-04-30T21:27:29.604Z,15.97
2023-04-30T21:29:59.461Z,15.86
2023-04-30T21:32:29.469Z,15.79
2023-04-30T21:34:59.720Z,15.73
2023-04-30T21:37:29.521Z,15.69
2023-04-30T21:39:59.534Z,15.61
2023-04-30T21:42:32.062Z,15.55
2023-04-30T21:45:01.940Z,15.49
2023-04-30T21:47:31.939Z,15.43
2023-04-30T21:50:02.001Z,15.40
2023-04-30T21:52:32.122Z,15.36
2023-04-30T21:55:02.211Z,15.33
2023-04-30T21:57:34.870Z,15.30
2023-04-30T22:00:05.737Z,15.27
2023-04-30T22:02:36.177Z,15.23
2023-04-30T22:05:06.645Z,15.11
2023-04-30T22:07:36.767Z,15.07
2023-04-30T22:10:08.084Z,15.03
2023-04-30T22:12:40.865Z,14.97
2023-04-30T22:15:12.383Z,14.97
2023-04-30T22:17:42.620Z,14.91
2023-04-30T22:20:13.148Z,14.90
2023-04-30T22:22:43.114Z,14.87
2023-04-30T22:25:13.179Z,14.85
2023-04-30T22:27:45.938Z,14.82
2023-04-30T22:30:19.251Z,14.79
2023-04-30T22:32:49.202Z,14.78
2023-04-30T22:35:19.892Z,14.77
2023-04-30T22:37:49.836Z,14.78
2023-04-30T22:40:20.760Z,14.77
2023-04-30T22:42:53.902Z,14.75
2023-04-30T22:45:23.896Z,14.73
2023-04-30T22:47:55.396Z,14.72
2023-04-30T22:50:25.404Z,14.67
2023-04-30T22:52:56.969Z,14.62
2023-04-30T22:55:27.399Z,14.58
2023-04-30T22:58:01.876Z,14.56
2023-04-30T23:00:31.996Z,14.55
2023-04-30T23:03:01.940Z,14.47
2023-04-30T23:05:31.969Z,14.45
2023-04-30T23:08:01.899Z,14.38
2023-04-30T23:10:31.974Z,14.36
2023-04-30T23:13:04.775Z,14.34
2023-04-30T23:15:34.591Z,14.32
2023-04-30T23:18:05.480Z,14.27
2023-04-30T23:20:35.484Z,14.21
2023-04-30T23:23:06.054Z,14.23
2023-04-30T23:25:35.918Z,14.24
2023-04-30T23:28:08.519Z,14.27
2023-04-30T23:30:41.067Z,14.26
2023-04-30T23:33:11.001Z,14.23
2023-04-30T23:35:45.948Z,14.23
2023-04-30T23:38:16.426Z,14.23
2023-04-30T23:40:47.500Z,14.23
2023-04-30T23:43:19.876Z,14.22
2023-04-30T23:45:49.839Z,14.21
2023-04-30T23:48:19.795Z,14.19
2023-04-30T23:50:49.831Z,14.17
2023-04-30T23:53:19.852Z,14.16
2023-04-30T23:55:49.841Z,14.03
2023-04-30T23:58:22.295Z,13.97
